Saint-Hyacinthe, Canada
Current Conditions -  °F | °C
As of 1:00 PM on Thursday 27 Nov 2014 (Local Time) from CYHU Reporting Station
Overcast Overcast  
Wind Chill: -4°   Ceiling: 3200
Heat Index:   Visibility: 9mi
Dew Point: -9°   Wind: 8mph
Humidity: 51%   Direction: 220°SW
Pressure: 30.02"   Gusts: NA
Location:  45.62°N, 72.95°W
Report Text: CYHU 271800Z AUTO 22007KT 190V260 9SM OVC032 M00/M09 A3002 RMK SLP168
Loading
Personal Weather Stations






























Interactive Weather Map New forecast layout! Learn more

10-Day Weather Forecast

Advertisements
Track Severe Weather on mobile